CheckWX is a tool to help pilots better visualize weather data.  It is not intended as a substitute for an official pre-flight weather briefing.

15:12:11 UTC

EGAA TAF
Belfast International Airport
Belfast, United Kingdom
TAF EGAA 291657Z 2918/3018 14009KT CAVOK

May-29@
18:00 UTC

May-29 @ 18:00 UTC

May-30@
18:00 UTC

May-30 @ 18:00 UTC

TAF EGAA 291657Z 2918/3018 14009KT CAVOK
Wind
  • 140° at 9 KTS
Conditions
No significant weather
Cloud Levels
  • No significant clouds